Time;durP1;ratioP1;P1;durP2;ratioP2;P2;SDS_P1;SDS_P2;PMS_P1;PMS_P2;Temp;Humidity;BMP_temperature;BMP_pressure;BME280_temperature;BME280_humidity;BME280_pressure;Samples;Min_cycle;Max_cycle;Signal;HPM_P1;HPM_P2
2022/09/19 00:00:05;;;;;;;1.27;0.40;;;;;;;;;;2085894;28;20089;-82
2022/09/19 00:01:26;;;;;;;0.88;0.50;;;;;;;;;;2091245;28;20501;-85
2022/09/19 00:02:45;;;;;;;2.60;0.60;;;;;;;;;;2093435;28;20037;-84
2022/09/19 00:04:05;;;;;;;0.60;0.60;;;;;;;;;;2085132;28;20053;-84
2022/09/19 00:05:24;;;;;;;2.45;0.63;;;;;;;;;;2084263;28;20033;-85
2022/09/19 00:06:44;;;;;;;0.70;0.60;;;;;;;;;;2093410;28;20025;-83
2022/09/19 00:08:03;;;;;;;0.50;0.50;;;;;;;;;;2093766;28;20037;-83
2022/09/19 00:09:24;;;;;;;1.60;0.50;;;;;;;;;;2092120;28;20033;-85
2022/09/19 00:10:46;;;;;;;0.57;0.55;;;;;;;;;;2086419;28;20216;-84
2022/09/19 00:12:05;;;;;;;0.50;0.50;;;;;;;;;;2088257;28;20021;-85
2022/09/19 00:13:25;;;;;;;0.40;0.40;;;;;;;;;;2093079;28;20026;-85
2022/09/19 00:14:44;;;;;;;0.40;0.40;;;;;;;;;;2086453;28;20021;-83
2022/09/19 00:16:03;;;;;;;0.68;0.45;;;;;;;;;;2091208;28;20567;-84
2022/09/19 00:17:23;;;;;;;0.50;0.50;;;;;;;;;;2095296;28;20033;-84
2022/09/19 00:18:41;;;;;;;0.30;0.30;;;;;;;;;;2088533;28;20025;-85
2022/09/19 00:20:00;;;;;;;0.52;0.50;;;;;;;;;;2085377;28;20033;-80
2022/09/19 00:21:23;;;;;;;1.85;0.73;;;;;;;;;;2094106;28;20033;-86
2022/09/19 00:24:45;;;;;;;1.15;0.50;;;;;;;;;;2091930;28;20555;-81
2022/09/19 00:26:05;;;;;;;1.27;0.52;;;;;;;;;;2095549;28;20029;-85
2022/09/19 00:27:26;;;;;;;0.82;0.50;;;;;;;;;;2085948;28;20030;-83
2022/09/19 00:28:46;;;;;;;1.60;0.40;;;;;;;;;;2089730;28;20044;-84
2022/09/19 00:30:05;;;;;;;0.40;0.40;;;;;;;;;;2094837;28;20025;-80
2022/09/19 00:31:25;;;;;;;0.40;0.40;;;;;;;;;;2091200;28;20033;-80
2022/09/19 00:32:44;;;;;;;0.50;0.43;;;;;;;;;;2082566;28;20529;-87
2022/09/19 00:34:06;;;;;;;1.65;0.40;;;;;;;;;;2087809;28;20068;-85
2022/09/19 00:35:25;;;;;;;0.55;0.50;;;;;;;;;;2082172;28;20029;-87
2022/09/19 00:36:45;;;;;;;0.98;0.52;;;;;;;;;;2088387;28;20024;-86
2022/09/19 00:38:04;;;;;;;0.40;0.40;;;;;;;;;;2095044;28;20034;-85
2022/09/19 00:39:23;;;;;;;0.38;0.35;;;;;;;;;;2094533;28;20521;-83
2022/09/19 00:40:42;;;;;;;1.27;0.40;;;;;;;;;;2095382;28;20013;-86
2022/09/19 00:42:02;;;;;;;0.75;0.60;;;;;;;;;;2094098;28;20036;-85
2022/09/19 00:43:21;;;;;;;0.75;0.30;;;;;;;;;;2096427;28;20052;-84
2022/09/19 00:44:40;;;;;;;0.57;0.55;;;;;;;;;;2095971;28;20090;-84
2022/09/19 00:45:59;;;;;;;0.50;0.50;;;;;;;;;;2097522;28;20021;-83
2022/09/19 00:47:25;;;;;;;0.73;0.40;;;;;;;;;;2086008;28;20034;-81
2022/09/19 00:48:46;;;;;;;0.85;0.50;;;;;;;;;;2093850;28;20021;-85
2022/09/19 00:50:10;;;;;;;1.95;0.60;;;;;;;;;;2086848;28;20093;-80
2022/09/19 00:51:47;;;;;;;1.85;0.60;;;;;;;;;;2092880;28;20024;-84
2022/09/19 00:53:11;;;;;;;0.40;0.40;;;;;;;;;;2094332;28;20049;-85
2022/09/19 00:54:36;;;;;;;1.05;0.40;;;;;;;;;;2094082;28;20041;-82
2022/09/19 00:55:55;;;;;;;0.70;0.60;;;;;;;;;;2086964;28;20029;-84
2022/09/19 00:57:15;;;;;;;0.45;0.45;;;;;;;;;;2081867;28;20124;-84
2022/09/19 00:58:35;;;;;;;0.60;0.60;;;;;;;;;;2084970;28;20025;-83
2022/09/19 00:59:54;;;;;;;0.70;0.40;;;;;;;;;;2091237;28;20100;-85
2022/09/19 01:01:14;;;;;;;0.68;0.47;;;;;;;;;;2085433;28;20086;-86
2022/09/19 01:02:34;;;;;;;0.60;0.45;;;;;;;;;;2091290;28;20021;-86
2022/09/19 01:03:53;;;;;;;1.70;0.50;;;;;;;;;;2095059;28;20005;-85
2022/09/19 01:05:13;;;;;;;1.55;0.50;;;;;;;;;;2093535;28;20041;-80
2022/09/19 01:06:36;;;;;;;0.57;0.52;;;;;;;;;;2096704;28;20032;-82
2022/09/19 01:08:19;;;;;;;0.40;0.40;;;;;;;;;;2094303;28;20033;-85
2022/09/19 01:09:55;;;;;;;0.38;0.38;;;;;;;;;;2088492;28;20037;-86
2022/09/19 01:11:33;;;;;;;1.23;0.57;;;;;;;;;;2095323;28;20054;-85
2022/09/19 01:12:52;;;;;;;1.48;0.40;;;;;;;;;;2094704;28;20394;-84
2022/09/19 01:14:25;;;;;;;0.65;0.30;;;;;;;;;;2095728;28;20032;-87
2022/09/19 01:15:50;;;;;;;1.90;0.60;;;;;;;;;;2094230;28;20432;-86
2022/09/19 01:17:12;;;;;;;1.95;0.50;;;;;;;;;;2096941;28;20021;-85
2022/09/19 01:18:42;;;;;;;1.63;0.45;;;;;;;;;;2096785;28;20024;-79
2022/09/19 01:20:10;;;;;;;0.45;0.45;;;;;;;;;;2087562;28;20029;-86
2022/09/19 01:21:39;;;;;;;1.10;0.50;;;;;;;;;;2087863;28;20018;-84
2022/09/19 01:23:15;;;;;;;0.40;0.40;;;;;;;;;;2084004;28;20029;-85
2022/09/19 01:24:53;;;;;;;0.45;0.45;;;;;;;;;;2093976;28;20025;-83
2022/09/19 01:26:32;;;;;;;0.85;0.60;;;;;;;;;;2088248;28;20033;-86
2022/09/19 01:28:03;;;;;;;0.50;0.50;;;;;;;;;;2095000;28;20104;-80
2022/09/19 01:29:25;;;;;;;1.25;0.60;;;;;;;;;;2094284;28;20112;-83
2022/09/19 01:31:16;;;;;;;0.30;0.30;;;;;;;;;;2085040;28;20077;-83
2022/09/19 01:32:32;;;;;;;0.40;0.40;;;;;;;;;;2096892;28;20013;-83
2022/09/19 01:34:05;;;;;;;0.82;0.50;;;;;;;;;;2095593;28;20404;-82
2022/09/19 01:35:26;;;;;;;1.75;0.40;;;;;;;;;;2094909;28;20033;-84
2022/09/19 01:36:52;;;;;;;0.82;0.45;;;;;;;;;;2085465;28;20017;-84
2022/09/19 01:38:19;;;;;;;1.85;0.40;;;;;;;;;;2092589;28;20021;-83
2022/09/19 01:39:41;;;;;;;0.70;0.40;;;;;;;;;;2086109;28;20025;-83
2022/09/19 01:41:01;;;;;;;0.40;0.40;;;;;;;;;;2090019;28;20033;-86
2022/09/19 01:42:20;;;;;;;2.03;0.50;;;;;;;;;;2095157;28;20025;-84
2022/09/19 01:43:39;;;;;;;0.43;0.43;;;;;;;;;;2083606;28;20033;-86
2022/09/19 01:44:59;;;;;;;0.68;0.40;;;;;;;;;;2089438;28;20021;-80
2022/09/19 01:46:35;;;;;;;1.27;0.50;;;;;;;;;;2080175;28;20030;-85
2022/09/19 01:48:05;;;;;;;0.50;0.50;;;;;;;;;;2090947;28;20041;-85
2022/09/19 01:49:27;;;;;;;2.65;0.45;;;;;;;;;;2084108;28;20026;-84
2022/09/19 01:50:54;;;;;;;0.90;0.50;;;;;;;;;;2090367;28;20021;-85
2022/09/19 01:52:16;;;;;;;0.30;0.30;;;;;;;;;;2084273;28;20037;-86
2022/09/19 01:53:35;;;;;;;0.70;0.30;;;;;;;;;;2089164;28;20033;-86
2022/09/19 01:55:00;;;;;;;0.43;0.22;;;;;;;;;;2092593;28;20518;-85
2022/09/19 01:56:28;;;;;;;0.40;0.30;;;;;;;;;;2096811;28;20032;-85
2022/09/19 01:58:04;;;;;;;0.77;0.40;;;;;;;;;;2094564;28;20044;-83
2022/09/19 01:59:32;;;;;;;1.35;0.40;;;;;;;;;;2087312;28;20029;-84
2022/09/19 02:01:10;;;;;;;0.30;0.30;;;;;;;;;;2082570;28;20033;-83
2022/09/19 02:02:36;;;;;;;1.20;0.40;;;;;;;;;;2094476;28;20112;-83
2022/09/19 02:04:01;;;;;;;0.40;0.40;;;;;;;;;;2086670;28;20033;-81
2022/09/19 02:05:26;;;;;;;0.30;0.30;;;;;;;;;;2092756;28;20029;-86
2022/09/19 02:06:58;;;;;;;0.85;0.40;;;;;;;;;;2087028;28;20065;-86
2022/09/19 02:08:28;;;;;;;0.45;0.45;;;;;;;;;;2094752;28;20045;-84
2022/09/19 02:10:00;;;;;;;1.48;0.40;;;;;;;;;;2096662;28;20044;-85
2022/09/19 02:11:21;;;;;;;1.55;0.40;;;;;;;;;;2087931;28;20018;-86
2022/09/19 02:12:41;;;;;;;5.03;0.50;;;;;;;;;;2083721;28;20083;-83
2022/09/19 02:14:16;;;;;;;1.65;0.40;;;;;;;;;;2093390;28;20033;-85
2022/09/19 02:15:36;;;;;;;0.30;0.30;;;;;;;;;;2095020;28;20432;-86
2022/09/19 02:17:02;;;;;;;1.00;0.40;;;;;;;;;;2097349;28;20017;-82
2022/09/19 02:18:25;;;;;;;1.20;0.40;;;;;;;;;;2097265;28;20025;-86
2022/09/19 02:19:46;;;;;;;0.88;0.35;;;;;;;;;;2088899;28;20021;-83
2022/09/19 02:21:10;;;;;;;2.40;0.40;;;;;;;;;;2088417;28;20022;-85
2022/09/19 02:22:32;;;;;;;2.58;0.32;;;;;;;;;;2095642;28;20093;-85
2022/09/19 02:23:55;;;;;;;1.75;0.30;;;;;;;;;;2097574;28;20033;-81
2022/09/19 02:25:17;;;;;;;0.40;0.40;;;;;;;;;;2086652;28;20034;-86
2022/09/19 02:26:39;;;;;;;1.45;0.30;;;;;;;;;;2087989;28;20033;-82
2022/09/19 02:28:11;;;;;;;0.73;0.50;;;;;;;;;;2079406;28;20037;-80
2022/09/19 02:29:33;;;;;;;0.30;0.30;;;;;;;;;;2091681;28;20048;-80
2022/09/19 02:30:52;;;;;;;1.00;0.30;;;;;;;;;;2095950;28;20061;-85
2022/09/19 02:32:11;;;;;;;0.40;0.40;;;;;;;;;;2095079;28;20041;-85
2022/09/19 02:33:32;;;;;;;2.47;0.50;;;;;;;;;;2093252;28;20024;-86
2022/09/19 02:34:52;;;;;;;2.38;0.50;;;;;;;;;;2084787;28;20030;-83
2022/09/19 02:36:24;;;;;;;0.60;0.30;;;;;;;;;;2090837;28;20033;-88
2022/09/19 02:37:49;;;;;;;0.77;0.45;;;;;;;;;;2087185;28;20021;-87
2022/09/19 02:39:18;;;;;;;1.27;0.40;;;;;;;;;;2090651;28;20537;-88
2022/09/19 02:40:44;;;;;;;0.70;0.60;;;;;;;;;;2094687;28;20192;-83
2022/09/19 02:42:10;;;;;;;0.20;0.20;;;;;;;;;;2076489;28;20125;-85
2022/09/19 02:43:47;;;;;;;1.10;0.32;;;;;;;;;;2073483;28;20022;-87
2022/09/19 02:45:12;;;;;;;0.73;0.30;;;;;;;;;;2075805;28;20034;-84
2022/09/19 02:46:39;;;;;;;0.20;0.20;;;;;;;;;;2081736;28;20046;-78
2022/09/19 02:48:03;;;;;;;0.40;0.40;;;;;;;;;;2086350;28;20021;-84
2022/09/19 02:49:37;;;;;;;0.75;0.20;;;;;;;;;;2073593;28;20029;-86
2022/09/19 02:51:00;;;;;;;1.00;0.25;;;;;;;;;;2074597;28;20029;-87
2022/09/19 02:52:21;;;;;;;0.73;0.20;;;;;;;;;;2074496;28;20038;-88
2022/09/19 02:53:44;;;;;;;0.30;0.30;;;;;;;;;;2084688;28;20026;-85
2022/09/19 02:55:08;;;;;;;0.85;0.20;;;;;;;;;;2074419;28;20086;-82
2022/09/19 02:56:29;;;;;;;0.60;0.30;;;;;;;;;;2078165;28;20030;-88
2022/09/19 02:57:51;;;;;;;0.32;0.30;;;;;;;;;;2077594;28;20030;-86
2022/09/19 02:59:21;;;;;;;0.93;0.43;;;;;;;;;;2073546;28;20029;-87
2022/09/19 03:00:40;;;;;;;0.40;0.20;;;;;;;;;;2074414;28;20034;-86
2022/09/19 03:02:01;;;;;;;0.30;0.30;;;;;;;;;;2082260;28;20018;-84
2022/09/19 03:05:12;;;;;;;0.32;0.32;;;;;;;;;;2075220;28;20037;-82
2022/09/19 03:06:35;;;;;;;0.30;0.30;;;;;;;;;;2076023;28;20029;-81
2022/09/19 03:07:57;;;;;;;0.28;0.28;;;;;;;;;;2085842;28;20041;-85
2022/09/19 03:09:18;;;;;;;0.30;0.30;;;;;;;;;;2074340;28;20049;-86
2022/09/19 03:10:38;;;;;;;1.33;0.40;;;;;;;;;;2077014;28;20026;-83
2022/09/19 03:12:00;;;;;;;0.38;0.38;;;;;;;;;;2073869;28;20038;-88
2022/09/19 03:13:22;;;;;;;2.13;0.60;;;;;;;;;;2078556;28;20037;-88
2022/09/19 03:14:41;;;;;;;0.80;0.30;;;;;;;;;;2073578;28;20029;-88
2022/09/19 03:16:04;;;;;;;0.38;0.30;;;;;;;;;;2079692;28;20022;-85
2022/09/19 03:17:27;;;;;;;0.20;0.20;;;;;;;;;;2076328;28;20034;-82
2022/09/19 03:18:46;;;;;;;2.17;0.40;;;;;;;;;;2082914;28;20064;-83
2022/09/19 03:20:07;;;;;;;1.40;0.38;;;;;;;;;;2081825;28;20033;-82
2022/09/19 03:21:26;;;;;;;2.78;0.70;;;;;;;;;;2075574;28;20022;-85
2022/09/19 03:22:45;;;;;;;1.20;0.45;;;;;;;;;;2077630;28;20025;-82
2022/09/19 03:24:05;;;;;;;1.50;0.30;;;;;;;;;;2078420;28;20025;-81
2022/09/19 03:25:25;;;;;;;2.33;0.40;;;;;;;;;;2073348;28;20026;-79
2022/09/19 03:26:44;;;;;;;0.30;0.30;;;;;;;;;;2083569;28;20169;-84
2022/09/19 03:28:03;;;;;;;2.65;0.55;;;;;;;;;;2079694;28;20038;-84
2022/09/19 03:29:22;;;;;;;1.42;0.40;;;;;;;;;;2084807;28;20402;-85
2022/09/19 03:30:41;;;;;;;1.02;0.38;;;;;;;;;;2081841;28;20037;-85
2022/09/19 03:32:00;;;;;;;2.80;0.63;;;;;;;;;;2079136;28;20034;-85
2022/09/19 03:33:20;;;;;;;1.40;0.40;;;;;;;;;;2074427;28;20061;-85
2022/09/19 03:34:39;;;;;;;0.32;0.32;;;;;;;;;;2074984;28;20034;-82
2022/09/19 03:36:06;;;;;;;0.80;0.50;;;;;;;;;;2077037;28;20026;-85
2022/09/19 03:37:25;;;;;;;0.65;0.40;;;;;;;;;;2079443;28;20030;-83
2022/09/19 03:38:45;;;;;;;4.15;0.50;;;;;;;;;;2071388;28;20029;-86
2022/09/19 03:40:04;;;;;;;3.30;0.30;;;;;;;;;;2076276;28;20034;-85
2022/09/19 03:41:23;;;;;;;0.40;0.40;;;;;;;;;;2077781;28;20029;-86
2022/09/19 03:42:46;;;;;;;0.40;0.40;;;;;;;;;;2085739;28;20029;-84
2022/09/19 03:44:05;;;;;;;0.75;0.70;;;;;;;;;;2083092;28;20108;-85
2022/09/19 03:45:26;;;;;;;0.55;0.55;;;;;;;;;;2084116;28;20025;-85
2022/09/19 03:46:46;;;;;;;2.08;0.50;;;;;;;;;;2081950;28;20041;-83
2022/09/19 03:48:05;;;;;;;1.92;0.43;;;;;;;;;;2083696;28;20053;-82
2022/09/19 03:49:24;;;;;;;0.65;0.28;;;;;;;;;;2083442;28;20041;-86
2022/09/19 03:50:43;;;;;;;0.38;0.30;;;;;;;;;;2084527;28;20021;-86
2022/09/19 03:52:02;;;;;;;0.75;0.50;;;;;;;;;;2081703;28;20482;-86
2022/09/19 03:53:21;;;;;;;0.93;0.30;;;;;;;;;;2084697;28;20041;-86
2022/09/19 03:54:40;;;;;;;1.10;0.65;;;;;;;;;;2083531;28;20033;-81
2022/09/19 03:55:59;;;;;;;1.48;0.40;;;;;;;;;;2084068;28;20022;-86
2022/09/19 03:57:18;;;;;;;1.30;0.40;;;;;;;;;;2082482;28;20033;-87
2022/09/19 03:58:38;;;;;;;1.05;0.25;;;;;;;;;;2084488;28;20029;-86
2022/09/19 03:59:57;;;;;;;0.98;0.50;;;;;;;;;;2084534;28;20063;-86
2022/09/19 04:01:16;;;;;;;0.65;0.50;;;;;;;;;;2084972;28;20030;-86
2022/09/19 04:02:35;;;;;;;0.43;0.43;;;;;;;;;;2082744;28;20406;-83
2022/09/19 04:03:54;;;;;;;1.42;0.50;;;;;;;;;;2085983;28;20033;-85
2022/09/19 04:05:14;;;;;;;1.30;0.77;;;;;;;;;;2083088;28;20021;-82
2022/09/19 04:06:33;;;;;;;1.00;0.60;;;;;;;;;;2085784;28;20030;-81
2022/09/19 04:07:52;;;;;;;2.13;0.60;;;;;;;;;;2082430;28;20112;-84
2022/09/19 04:09:11;;;;;;;0.82;0.50;;;;;;;;;;2082933;28;20080;-85
2022/09/19 04:10:30;;;;;;;0.98;0.40;;;;;;;;;;2081872;28;20025;-85
2022/09/19 04:11:49;;;;;;;0.85;0.38;;;;;;;;;;2085985;28;20089;-86
2022/09/19 04:13:09;;;;;;;0.63;0.40;;;;;;;;;;2082598;28;20052;-86
2022/09/19 04:14:29;;;;;;;0.85;0.32;;;;;;;;;;2079220;28;20034;-83
2022/09/19 04:15:49;;;;;;;2.53;0.50;;;;;;;;;;2071215;28;20038;-88
2022/09/19 04:17:09;;;;;;;1.73;0.50;;;;;;;;;;2078856;28;20450;-81
2022/09/19 04:18:29;;;;;;;1.05;0.50;;;;;;;;;;2083577;28;20029;-84
2022/09/19 04:19:50;;;;;;;1.67;0.32;;;;;;;;;;2079780;28;20500;-87
2022/09/19 04:21:09;;;;;;;0.73;0.55;;;;;;;;;;2079372;28;20108;-86
2022/09/19 04:22:27;;;;;;;0.60;0.40;;;;;;;;;;2081001;28;20068;-86
2022/09/19 04:23:46;;;;;;;0.60;0.50;;;;;;;;;;2082122;28;20064;-88
2022/09/19 04:25:10;;;;;;;2.88;0.55;;;;;;;;;;2082870;28;20030;-88
2022/09/19 04:26:29;;;;;;;0.75;0.50;;;;;;;;;;2082563;28;20034;-87
2022/09/19 04:27:49;;;;;;;0.93;0.45;;;;;;;;;;2083379;28;20561;-82
2022/09/19 04:29:08;;;;;;;0.32;0.32;;;;;;;;;;2084671;28;20858;-89
2022/09/19 04:30:28;;;;;;;0.82;0.47;;;;;;;;;;2083266;28;20078;-90
2022/09/19 04:31:47;;;;;;;1.85;0.35;;;;;;;;;;2082680;28;20037;-87
2022/09/19 04:33:07;;;;;;;2.05;0.50;;;;;;;;;;2092613;28;20517;-87
2022/09/19 04:34:26;;;;;;;0.35;0.20;;;;;;;;;;2084683;28;20405;-83
2022/09/19 04:35:45;;;;;;;2.15;0.57;;;;;;;;;;2081939;28;20510;-85
2022/09/19 04:37:06;;;;;;;0.60;0.50;;;;;;;;;;2088159;28;20021;-86
2022/09/19 04:38:26;;;;;;;0.85;0.40;;;;;;;;;;2087894;28;20032;-87
2022/09/19 04:39:48;;;;;;;0.65;0.47;;;;;;;;;;2082516;28;20022;-86
2022/09/19 04:41:08;;;;;;;2.63;0.50;;;;;;;;;;2083967;28;20041;-90
2022/09/19 04:42:27;;;;;;;1.15;0.30;;;;;;;;;;2083603;28;20029;-88
2022/09/19 04:43:48;;;;;;;0.63;0.50;;;;;;;;;;2090728;28;20238;-82
2022/09/19 04:45:07;;;;;;;2.38;0.30;;;;;;;;;;2089937;28;20025;-86
2022/09/19 04:46:27;;;;;;;0.40;0.40;;;;;;;;;;2091464;28;20025;-82
2022/09/19 04:47:47;;;;;;;0.60;0.20;;;;;;;;;;2090169;28;20409;-87
2022/09/19 04:49:07;;;;;;;0.20;0.20;;;;;;;;;;2091962;28;20029;-88
2022/09/19 04:50:26;;;;;;;0.30;0.30;;;;;;;;;;2085061;28;20033;-85
2022/09/19 04:51:45;;;;;;;1.38;0.50;;;;;;;;;;2086662;28;20017;-87
2022/09/19 04:53:04;;;;;;;0.63;0.40;;;;;;;;;;2088139;28;20025;-90
2022/09/19 04:54:23;;;;;;;0.52;0.30;;;;;;;;;;2090771;28;20501;-89
2022/09/19 04:55:42;;;;;;;0.30;0.30;;;;;;;;;;2088894;28;20037;-86
2022/09/19 04:57:05;;;;;;;0.35;0.30;;;;;;;;;;2088289;28;20596;-83
2022/09/19 04:58:24;;;;;;;0.57;0.35;;;;;;;;;;2079066;28;20034;-87
2022/09/19 04:59:43;;;;;;;0.60;0.45;;;;;;;;;;2087036;28;20029;-86
2022/09/19 05:01:02;;;;;;;1.17;0.40;;;;;;;;;;2079936;28;20069;-85
2022/09/19 05:02:30;;;;;;;0.80;0.43;;;;;;;;;;2084129;28;20428;-84
2022/09/19 05:03:48;;;;;;;0.30;0.30;;;;;;;;;;2088008;28;20029;-86
2022/09/19 05:05:07;;;;;;;0.30;0.30;;;;;;;;;;2080037;28;20033;-86
2022/09/19 05:06:28;;;;;;;0.65;0.20;;;;;;;;;;2086800;28;20037;-83
2022/09/19 05:07:47;;;;;;;0.38;0.38;;;;;;;;;;2087890;28;20127;-83
2022/09/19 05:09:06;;;;;;;3.30;0.30;;;;;;;;;;2079765;28;20052;-87
2022/09/19 05:10:25;;;;;;;1.50;0.52;;;;;;;;;;2085514;28;20389;-86
2022/09/19 05:11:46;;;;;;;0.50;0.40;;;;;;;;;;2080199;28;20029;-87
2022/09/19 05:13:05;;;;;;;1.60;0.38;;;;;;;;;;2076832;28;20584;-87
2022/09/19 05:14:26;;;;;;;0.28;0.28;;;;;;;;;;2085654;28;20037;-87
2022/09/19 05:15:45;;;;;;;0.60;0.43;;;;;;;;;;2079523;28;20753;-82
2022/09/19 05:17:04;;;;;;;0.82;0.25;;;;;;;;;;2085337;28;20029;-85
2022/09/19 05:18:23;;;;;;;0.95;0.30;;;;;;;;;;2087587;28;20448;-84
2022/09/19 05:19:44;;;;;;;0.98;0.30;;;;;;;;;;2089340;28;20025;-87
2022/09/19 05:21:05;;;;;;;5.00;0.47;;;;;;;;;;2080445;28;20030;-88
2022/09/19 05:22:24;;;;;;;1.63;0.35;;;;;;;;;;2075187;28;20029;-87
2022/09/19 05:23:43;;;;;;;1.95;0.30;;;;;;;;;;2075727;28;20177;-87
2022/09/19 05:25:02;;;;;;;2.47;0.50;;;;;;;;;;2076632;28;20026;-88
2022/09/19 05:26:22;;;;;;;2.67;0.40;;;;;;;;;;2084136;28;20029;-82
2022/09/19 05:27:41;;;;;;;0.80;0.30;;;;;;;;;;2086123;28;20065;-85
2022/09/19 05:29:01;;;;;;;1.50;0.30;;;;;;;;;;2080211;28;20482;-80
2022/09/19 05:30:22;;;;;;;0.43;0.30;;;;;;;;;;2085528;28;20092;-85
2022/09/19 05:31:44;;;;;;;0.93;0.50;;;;;;;;;;2089604;28;20033;-86
2022/09/19 05:33:04;;;;;;;3.45;0.52;;;;;;;;;;2086745;28;20033;-89
2022/09/19 05:34:25;;;;;;;4.88;0.60;;;;;;;;;;2079474;28;20029;-88
2022/09/19 05:35:44;;;;;;;2.28;0.50;;;;;;;;;;2087219;28;20029;-88
2022/09/19 05:37:04;;;;;;;1.10;0.38;;;;;;;;;;2084186;28;20026;-89
2022/09/19 05:38:23;;;;;;;1.17;0.50;;;;;;;;;;2081969;28;20037;-88
2022/09/19 05:39:42;;;;;;;2.22;0.50;;;;;;;;;;2087051;28;20539;-85
2022/09/19 05:41:02;;;;;;;0.60;0.30;;;;;;;;;;2090456;28;20040;-88
2022/09/19 05:42:21;;;;;;;0.82;0.30;;;;;;;;;;2080523;28;20547;-90
2022/09/19 05:43:39;;;;;;;0.30;0.30;;;;;;;;;;2085577;28;20037;-90
2022/09/19 05:44:59;;;;;;;1.38;0.45;;;;;;;;;;2088634;28;20084;-88
2022/09/19 05:46:20;;;;;;;0.55;0.30;;;;;;;;;;2090152;28;20060;-86
2022/09/19 05:47:39;;;;;;;0.50;0.35;;;;;;;;;;2081021;28;20037;-86
2022/09/19 05:48:59;;;;;;;1.40;0.38;;;;;;;;;;2087851;28;20489;-86
2022/09/19 05:50:19;;;;;;;3.10;0.40;;;;;;;;;;2088421;28;20484;-86
2022/09/19 05:51:39;;;;;;;9.18;0.73;;;;;;;;;;2092950;28;20033;-88
2022/09/19 05:54:36;;;;;;;0.73;0.40;;;;;;;;;;2091267;28;20041;-84
2022/09/19 05:55:55;;;;;;;1.33;0.28;;;;;;;;;;2080004;28;20504;-87
2022/09/19 05:57:16;;;;;;;1.17;0.40;;;;;;;;;;2087721;28;20482;-87
2022/09/19 05:58:35;;;;;;;1.60;0.45;;;;;;;;;;2090002;28;20148;-88
2022/09/19 05:59:56;;;;;;;2.88;0.47;;;;;;;;;;2081395;28;20045;-84
2022/09/19 06:01:15;;;;;;;1.77;0.40;;;;;;;;;;2085540;28;20498;-86
2022/09/19 06:02:33;;;;;;;1.10;0.40;;;;;;;;;;2089304;28;20032;-86
2022/09/19 06:03:52;;;;;;;1.13;0.35;;;;;;;;;;2088985;28;20036;-87
2022/09/19 06:05:11;;;;;;;0.22;0.22;;;;;;;;;;2088472;28;20103;-85
2022/09/19 06:06:30;;;;;;;0.43;0.40;;;;;;;;;;2082053;28;20033;-86
2022/09/19 06:07:51;;;;;;;0.60;0.30;;;;;;;;;;2086257;28;20032;-88
2022/09/19 06:09:10;;;;;;;1.55;0.20;;;;;;;;;;2080686;28;21291;-87
2022/09/19 06:10:30;;;;;;;2.10;0.40;;;;;;;;;;2081550;28;20129;-86
2022/09/19 06:11:49;;;;;;;0.40;0.40;;;;;;;;;;2087797;28;20662;-87
2022/09/19 06:13:12;;;;;;;2.20;0.30;;;;;;;;;;2083765;28;20034;-87
2022/09/19 06:14:31;;;;;;;0.65;0.35;;;;;;;;;;2080444;28;20030;-86
2022/09/19 06:15:50;;;;;;;0.38;0.20;;;;;;;;;;2083499;28;20061;-83
2022/09/19 06:17:11;;;;;;;1.63;0.30;;;;;;;;;;2079467;28;20076;-80
2022/09/19 06:18:30;;;;;;;0.55;0.22;;;;;;;;;;2085209;28;20025;-80
2022/09/19 06:19:49;;;;;;;0.40;0.40;;;;;;;;;;2086285;28;20413;-79
2022/09/19 06:21:08;;;;;;;0.65;0.38;;;;;;;;;;2079738;28;20026;-79
2022/09/19 06:22:29;;;;;;;0.90;0.50;;;;;;;;;;2080022;28;20540;-79
2022/09/19 06:23:48;;;;;;;0.85;0.30;;;;;;;;;;2075985;28;20506;-78
2022/09/19 06:25:10;;;;;;;0.57;0.32;;;;;;;;;;2084844;28;20021;-79
2022/09/19 06:26:29;;;;;;;2.65;0.80;;;;;;;;;;2087317;28;20432;-78
2022/09/19 06:27:59;;;;;;;0.80;0.40;;;;;;;;;;2089515;28;20033;-78
2022/09/19 06:29:18;;;;;;;1.05;0.40;;;;;;;;;;2087853;28;20041;-78
2022/09/19 06:30:37;;;;;;;1.05;0.47;;;;;;;;;;2088916;28;20025;-79
2022/09/19 06:31:56;;;;;;;2.05;0.22;;;;;;;;;;2086584;28;20029;-79
2022/09/19 06:33:15;;;;;;;2.38;0.57;;;;;;;;;;2086504;28;20060;-79
2022/09/19 06:34:34;;;;;;;1.40;0.30;;;;;;;;;;2087315;28;20037;-80
2022/09/19 06:35:58;;;;;;;1.00;0.30;;;;;;;;;;2089949;28;20025;-79
2022/09/19 06:37:18;;;;;;;0.60;0.47;;;;;;;;;;2078630;28;20045;-80
2022/09/19 06:38:40;;;;;;;1.73;0.40;;;;;;;;;;2077478;28;20029;-85
2022/09/19 06:39:59;;;;;;;2.85;0.40;;;;;;;;;;2078380;28;20030;-75
2022/09/19 06:41:18;;;;;;;1.23;0.80;;;;;;;;;;2080766;28;20037;-75
2022/09/19 06:42:37;;;;;;;1.98;0.40;;;;;;;;;;2086058;28;20393;-76
2022/09/19 06:43:56;;;;;;;2.58;0.60;;;;;;;;;;2078359;28;20037;-76
2022/09/19 06:45:15;;;;;;;2.63;0.40;;;;;;;;;;2082636;28;20454;-76
2022/09/19 06:46:37;;;;;;;2.45;0.40;;;;;;;;;;2079616;28;20033;-76
2022/09/19 06:47:57;;;;;;;0.65;0.30;;;;;;;;;;2077831;28;20038;-80
2022/09/19 06:49:16;;;;;;;0.38;0.35;;;;;;;;;;2084464;28;20393;-80
2022/09/19 06:50:35;;;;;;;0.28;0.28;;;;;;;;;;2087050;28;20068;-82
2022/09/19 06:51:54;;;;;;;1.38;0.30;;;;;;;;;;2088203;28;20041;-81
2022/09/19 06:53:13;;;;;;;0.55;0.40;;;;;;;;;;2080471;28;20026;-80
2022/09/19 06:54:32;;;;;;;0.55;0.40;;;;;;;;;;2083698;28;20049;-81
2022/09/19 06:55:52;;;;;;;1.38;0.40;;;;;;;;;;2087679;28;20033;-81
2022/09/19 06:57:11;;;;;;;0.60;0.45;;;;;;;;;;2087899;28;20017;-81
2022/09/19 06:58:30;;;;;;;0.30;0.30;;;;;;;;;;2079341;28;20526;-81
2022/09/19 06:59:52;;;;;;;0.57;0.30;;;;;;;;;;2084927;28;20017;-80
2022/09/19 07:01:12;;;;;;;0.17;0.17;;;;;;;;;;2088817;28;20021;-80
2022/09/19 07:02:32;;;;;;;0.20;0.20;;;;;;;;;;2078722;28;20038;-80
2022/09/19 07:03:51;;;;;;;1.55;0.30;;;;;;;;;;2084687;28;20124;-80
2022/09/19 07:05:11;;;;;;;0.25;0.20;;;;;;;;;;2088157;28;20037;-80
2022/09/19 07:06:31;;;;;;;1.02;0.47;;;;;;;;;;2080009;28;20501;-80
2022/09/19 07:07:51;;;;;;;2.17;0.35;;;;;;;;;;2085154;28;20056;-80
2022/09/19 07:09:10;;;;;;;0.52;0.28;;;;;;;;;;2087720;28;20679;-80
2022/09/19 07:10:29;;;;;;;0.45;0.25;;;;;;;;;;2079456;28;20029;-80
2022/09/19 07:11:47;;;;;;;1.50;0.32;;;;;;;;;;2085902;28;20489;-81
2022/09/19 07:13:09;;;;;;;1.85;0.50;;;;;;;;;;2080088;28;20034;-80
2022/09/19 07:14:28;;;;;;;1.75;0.30;;;;;;;;;;2083728;28;20045;-80
2022/09/19 07:15:47;;;;;;;0.82;0.30;;;;;;;;;;2087062;28;20378;-79
2022/09/19 07:17:06;;;;;;;2.25;0.28;;;;;;;;;;2078242;28;20025;-80
2022/09/19 07:18:25;;;;;;;1.65;0.20;;;;;;;;;;2076450;28;20398;-80
2022/09/19 07:19:44;;;;;;;0.73;0.30;;;;;;;;;;2083809;28;20061;-81
2022/09/19 07:21:03;;;;;;;0.55;0.30;;;;;;;;;;2079637;28;20098;-80
2022/09/19 07:22:23;;;;;;;3.45;0.40;;;;;;;;;;2076673;28;20060;-79
2022/09/19 07:23:42;;;;;;;0.52;0.22;;;;;;;;;;2084590;28;20505;-79
2022/09/19 07:25:01;;;;;;;1.70;0.40;;;;;;;;;;2086787;28;20033;-79
2022/09/19 07:26:22;;;;;;;0.70;0.43;;;;;;;;;;2086414;28;20025;-79
2022/09/19 07:27:42;;;;;;;0.22;0.20;;;;;;;;;;2088139;28;20096;-80
2022/09/19 07:29:01;;;;;;;1.08;0.28;;;;;;;;;;2087509;28;20021;-80
2022/09/19 07:30:20;;;;;;;1.25;0.30;;;;;;;;;;2087519;28;20029;-80
2022/09/19 07:31:39;;;;;;;2.75;0.30;;;;;;;;;;2079366;28;20033;-80
2022/09/19 07:32:58;;;;;;;1.95;0.30;;;;;;;;;;2067821;28;20073;-79
2022/09/19 07:34:17;;;;;;;4.63;0.40;;;;;;;;;;2081955;28;20036;-80
2022/09/19 07:35:37;;;;;;;0.30;0.28;;;;;;;;;;2078840;28;20073;-79
2022/09/19 07:36:56;;;;;;;1.38;0.30;;;;;;;;;;2075738;28;20029;-79
2022/09/19 07:38:17;;;;;;;1.05;0.40;;;;;;;;;;2084282;28;20028;-79
2022/09/19 07:39:36;;;;;;;1.17;0.20;;;;;;;;;;2079608;28;20056;-79
2022/09/19 07:40:54;;;;;;;0.20;0.20;;;;;;;;;;2082944;28;20076;-79
2022/09/19 07:42:13;;;;;;;1.38;0.22;;;;;;;;;;2078041;28;20030;-80
2022/09/19 07:43:32;;;;;;;2.00;0.40;;;;;;;;;;2079304;28;20022;-79
2022/09/19 07:44:51;;;;;;;0.98;0.40;;;;;;;;;;2084102;28;20134;-79
2022/09/19 07:46:15;;;;;;;0.55;0.35;;;;;;;;;;2089245;28;20040;-79
2022/09/19 07:47:36;;;;;;;;;;;;;;;;;;2088736;28;20112;-79
2022/09/19 07:48:56;;;;;;;1.02;0.63;;;;;;;;;;2087958;28;19927;-79
2022/09/19 07:50:19;;;;;;;2.20;0.30;;;;;;;;;;2087477;28;20045;-79
2022/09/19 07:51:38;;;;;;;1.73;0.30;;;;;;;;;;2085268;28;20459;-80
2022/09/19 07:53:00;;;;;;;0.47;0.47;;;;;;;;;;2088341;28;20063;-80
2022/09/19 07:54:19;;;;;;;;;;;;;;;;;;2088840;28;20041;-81
2022/09/19 07:55:42;;;;;;;0.30;0.22;;;;;;;;;;2078822;28;19921;-80
2022/09/19 07:57:01;;;;;;;1.00;0.35;;;;;;;;;;2084332;28;20538;-80
2022/09/19 07:58:20;;;;;;;0.47;0.30;;;;;;;;;;2079948;28;20057;-80
2022/09/19 07:59:39;;;;;;;1.75;0.40;;;;;;;;;;2080774;28;20021;-80
2022/09/19 08:01:00;;;;;;;3.80;0.30;;;;;;;;;;2082567;28;20025;-81
2022/09/19 08:02:19;;;;;;;0.30;0.30;;;;;;;;;;2088859;28;20017;-76
2022/09/19 08:03:38;;;;;;;0.57;0.40;;;;;;;;;;2087791;28;20052;-76
2022/09/19 08:04:57;;;;;;;1.60;0.20;;;;;;;;;;2089550;28;20474;-76
2022/09/19 08:06:17;;;;;;;0.98;0.38;;;;;;;;;;2078374;28;20025;-76
2022/09/19 08:07:35;;;;;;;1.75;0.30;;;;;;;;;;2084075;28;20026;-77
2022/09/19 08:08:54;;;;;;;0.30;0.30;;;;;;;;;;2088363;28;20029;-77
2022/09/19 08:10:15;;;;;;;0.57;0.20;;;;;;;;;;2088446;28;20454;-79
2022/09/19 08:11:36;;;;;;;0.35;0.22;;;;;;;;;;2079897;28;20037;-76
2022/09/19 08:13:00;;;;;;;1.08;0.50;;;;;;;;;;2084942;28;20032;-76